createdAt,value
2023-04-19T00:01:17.238Z,19.00
2023-04-19T00:03:44.082Z,18.47
2023-04-19T00:06:10.913Z,17.58
2023-04-19T00:08:37.350Z,18.88
2023-04-19T00:11:03.811Z,19.13
2023-04-19T00:13:30.242Z,18.25
2023-04-19T00:15:56.659Z,18.40
2023-04-19T00:18:23.098Z,18.15
2023-04-19T00:20:49.536Z,18.45
2023-04-19T00:23:16.013Z,17.65
2023-04-19T00:25:42.797Z,18.60
2023-04-19T00:28:09.260Z,17.83
2023-04-19T00:30:35.715Z,17.20
2023-04-19T00:33:02.250Z,18.48
2023-04-19T00:35:28.683Z,18.17
2023-04-19T00:37:55.140Z,17.13
2023-04-19T00:40:21.563Z,17.80
2023-04-19T00:42:48.022Z,17.58
2023-04-19T00:45:14.500Z,17.67
2023-04-19T00:47:41.433Z,17.50
2023-04-19T00:50:08.206Z,19.00
2023-04-19T00:52:35.278Z,18.30
2023-04-19T00:55:04.560Z,17.30
2023-04-19T00:57:31.477Z,17.80
2023-04-19T00:59:58.642Z,17.08
2023-04-19T01:02:25.233Z,18.65
2023-04-19T01:04:51.933Z,18.13
2023-04-19T01:07:19.384Z,17.65
2023-04-19T01:09:46.295Z,18.05
2023-04-19T01:12:12.791Z,17.15
2023-04-19T01:14:41.531Z,17.85
2023-04-19T01:17:08.478Z,17.45
2023-04-19T01:19:36.434Z,16.92
2023-04-19T01:22:04.066Z,18.05
2023-04-19T01:24:30.731Z,17.85
2023-04-19T01:26:57.135Z,18.92
2023-04-19T01:29:23.638Z,17.85
2023-04-19T01:31:53.667Z,18.52
2023-04-19T01:34:20.396Z,19.00
2023-04-19T01:36:46.909Z,18.38
2023-04-19T01:39:13.309Z,18.80
2023-04-19T01:41:39.825Z,18.35
2023-04-19T01:44:06.290Z,19.10
2023-04-19T01:46:32.745Z,17.52
2023-04-19T01:48:59.193Z,18.73
2023-04-19T01:51:25.880Z,19.33
2023-04-19T01:53:53.850Z,18.33
2023-04-19T01:56:22.613Z,18.73
2023-04-19T01:58:49.044Z,18.95
2023-04-19T02:01:15.664Z,19.15
2023-04-19T02:03:42.429Z,18.15
2023-04-19T02:06:15.225Z,18.63
2023-04-19T02:08:41.959Z,19.13
2023-04-19T02:11:14.414Z,18.55
2023-04-19T02:13:41.393Z,20.30
2023-04-19T02:16:08.007Z,18.38
2023-04-19T02:18:40.667Z,18.27
2023-04-19T02:21:09.044Z,18.85
2023-04-19T02:23:35.566Z,18.33
2023-04-19T02:26:04.990Z,18.13
2023-04-19T02:28:31.725Z,18.55
2023-04-19T02:30:58.722Z,19.30
2023-04-19T02:33:26.041Z,19.58
2023-04-19T02:35:52.809Z,19.27
2023-04-19T02:38:19.241Z,18.48
2023-04-19T02:40:45.806Z,19.02
2023-04-19T02:43:12.210Z,19.17
2023-04-19T02:45:38.756Z,19.98
2023-04-19T02:48:05.479Z,19.90
2023-04-19T02:50:32.368Z,20.98
2023-04-19T02:52:59.021Z,20.55
2023-04-19T02:55:27.867Z,20.33
2023-04-19T02:58:04.389Z,20.85
2023-04-19T03:00:31.567Z,21.15
2023-04-19T03:03:04.776Z,20.63
2023-04-19T03:05:32.798Z,21.48
2023-04-19T03:07:59.255Z,20.65
2023-04-19T03:10:26.253Z,20.92
2023-04-19T03:12:52.731Z,20.23
2023-04-19T03:15:19.882Z,20.42
2023-04-19T03:17:46.437Z,19.90
2023-04-19T03:20:13.070Z,20.08
2023-04-19T03:22:40.143Z,20.10
2023-04-19T03:25:07.020Z,19.33
2023-04-19T03:27:35.651Z,20.02
2023-04-19T03:30:06.340Z,21.08
2023-04-19T03:32:32.843Z,19.83
2023-04-19T03:34:59.805Z,19.50
2023-04-19T03:37:26.213Z,18.58
2023-04-19T03:39:53.053Z,19.95
2023-04-19T03:42:28.770Z,19.73
2023-04-19T03:45:10.203Z,19.30
2023-04-19T03:47:40.894Z,18.27
2023-04-19T03:50:08.272Z,18.20
2023-04-19T03:52:35.883Z,18.95
2023-04-19T03:55:02.445Z,17.98
2023-04-19T03:57:36.048Z,18.77
2023-04-19T04:00:10.778Z,17.83
2023-04-19T04:02:46.339Z,16.98
2023-04-19T04:05:13.678Z,17.55
2023-04-19T04:07:40.818Z,17.80
2023-04-19T04:10:07.795Z,17.08
2023-04-19T04:12:40.000Z,25.00
2023-04-19T04:15:08.793Z,16.80
2023-04-19T04:17:37.797Z,17.40
2023-04-19T04:20:05.700Z,17.27
2023-04-19T04:22:32.803Z,14.48
2023-04-19T04:25:01.284Z,13.30
2023-04-19T04:27:36.792Z,13.98
2023-04-19T04:30:04.375Z,12.30
2023-04-19T04:32:35.646Z,12.80
2023-04-19T04:35:03.438Z,11.75
2023-04-19T04:37:40.234Z,11.95
2023-04-19T04:40:08.049Z,11.07
2023-04-19T04:42:35.644Z,9.98
2023-04-19T04:45:02.311Z,10.48
2023-04-19T04:47:33.770Z,10.30
2023-04-19T04:50:03.714Z,10.10
2023-04-19T04:52:30.567Z,8.35
2023-04-19T04:55:11.086Z,8.70
2023-04-19T04:57:42.315Z,9.60
2023-04-19T05:00:14.116Z,8.65
2023-04-19T05:02:50.582Z,8.77
2023-04-19T05:05:17.234Z,9.68
2023-04-19T05:07:43.654Z,8.75
2023-04-19T05:10:10.269Z,8.30
2023-04-19T05:12:43.992Z,8.38
2023-04-19T05:15:12.048Z,7.30
2023-04-19T05:17:43.423Z,8.00
2023-04-19T05:20:10.230Z,6.97
2023-04-19T05:22:37.592Z,8.43
2023-04-19T05:25:06.884Z,7.43
2023-04-19T05:27:33.436Z,7.45
2023-04-19T05:30:00.185Z,7.65
2023-04-19T05:32:27.646Z,8.00
2023-04-19T05:34:57.421Z,6.95
2023-04-19T05:37:27.057Z,7.35
2023-04-19T05:39:53.565Z,6.80
2023-04-19T05:42:20.056Z,7.57
2023-04-19T05:44:46.667Z,6.72
2023-04-19T05:47:13.583Z,6.25
2023-04-19T05:50:06.606Z,6.57
2023-04-19T05:52:44.951Z,7.40
2023-04-19T05:55:11.449Z,9.35
2023-04-19T05:57:42.372Z,6.40
2023-04-19T06:00:12.067Z,6.55
2023-04-19T06:02:47.185Z,6.35
2023-04-19T06:05:14.436Z,6.40
2023-04-19T06:07:47.283Z,6.65
2023-04-19T06:10:20.895Z,6.10
2023-04-19T06:12:47.373Z,7.75
2023-04-19T06:15:13.870Z,6.03
2023-04-19T06:17:41.178Z,7.30
2023-04-19T06:20:08.359Z,8.50
2023-04-19T06:22:36.453Z,6.47
2023-04-19T06:25:03.624Z,6.30
2023-04-19T06:27:30.052Z,6.70
2023-04-19T06:29:56.604Z,7.00
2023-04-19T06:32:23.196Z,6.47
2023-04-19T06:34:49.651Z,6.60
2023-04-19T06:37:16.075Z,6.88
2023-04-19T06:39:42.647Z,6.93
2023-04-19T06:42:09.245Z,6.00
2023-04-19T06:44:35.706Z,6.47
2023-04-19T06:47:02.159Z,7.13
2023-04-19T06:49:28.703Z,7.55
2023-04-19T06:51:55.198Z,8.20
2023-04-19T06:54:22.167Z,6.45
2023-04-19T06:56:49.958Z,8.40
2023-04-19T06:59:20.309Z,6.97
2023-04-19T07:01:47.373Z,8.55
2023-04-19T07:04:14.282Z,7.05
2023-04-19T07:06:40.999Z,6.63
2023-04-19T07:09:08.185Z,8.45
2023-04-19T07:11:34.692Z,7.95
2023-04-19T07:14:01.343Z,8.23
2023-04-19T07:16:28.078Z,8.10
2023-04-19T07:18:54.573Z,7.13
2023-04-19T07:21:21.073Z,8.65
2023-04-19T07:23:47.536Z,7.03
2023-04-19T07:26:14.980Z,7.32
2023-04-19T07:28:41.481Z,9.43
2023-04-19T07:31:08.036Z,10.07
2023-04-19T07:33:34.744Z,7.20
2023-04-19T07:36:01.650Z,7.32
2023-04-19T07:38:28.260Z,6.68
2023-04-19T07:40:54.679Z,7.70
2023-04-19T07:43:21.254Z,8.07
2023-04-19T07:45:47.783Z,8.68
2023-04-19T07:48:14.262Z,7.32
2023-04-19T07:50:40.791Z,7.85
2023-04-19T07:53:07.223Z,7.53
2023-04-19T07:55:33.739Z,8.07
2023-04-19T07:58:00.864Z,6.82
2023-04-19T08:00:27.765Z,7.03
2023-04-19T08:02:54.406Z,7.38
2023-04-19T08:05:21.426Z,7.15
2023-04-19T08:07:48.075Z,6.75
2023-04-19T08:10:14.938Z,6.70
2023-04-19T08:12:53.546Z,8.82
2023-04-19T08:17:57.510Z,5.90
2023-04-19T08:20:23.997Z,6.72
2023-04-19T08:22:51.249Z,6.53
2023-04-19T08:25:18.016Z,6.85
2023-04-19T08:27:44.528Z,6.35
2023-04-19T08:30:11.151Z,6.20
2023-04-19T08:32:37.903Z,6.32
2023-04-19T08:35:05.532Z,6.32
2023-04-19T08:37:31.991Z,5.80
2023-04-19T08:39:58.486Z,7.45
2023-04-19T08:42:35.644Z,7.25
2023-04-19T08:47:44.900Z,5.97
2023-04-19T08:50:31.031Z,5.78
2023-04-19T08:53:12.182Z,7.30
2023-04-19T08:56:03.548Z,5.70
2023-04-19T09:01:08.355Z,5.45
2023-04-19T09:03:58.414Z,5.72
2023-04-19T09:06:27.935Z,6.35
2023-04-19T09:09:28.414Z,4.35
2023-04-19T09:11:59.777Z,4.40
2023-04-19T09:14:28.676Z,6.13
2023-04-19T09:17:11.745Z,5.20
2023-04-19T09:19:45.857Z,5.45
2023-04-19T09:22:13.422Z,7.10
2023-04-19T09:27:12.256Z,4.43
2023-04-19T09:29:39.055Z,4.32
2023-04-19T09:32:06.111Z,7.50
2023-04-19T09:34:32.646Z,7.75
2023-04-19T09:37:15.102Z,4.60
2023-04-19T09:39:47.657Z,4.47
2023-04-19T09:42:15.769Z,4.70
2023-04-19T09:45:28.587Z,5.50
2023-04-19T09:48:00.779Z,5.80
2023-04-19T09:52:53.991Z,5.57
2023-04-19T09:57:51.768Z,4.88
2023-04-19T10:00:18.417Z,4.05
2023-04-19T10:02:48.641Z,8.38
2023-04-19T10:05:21.153Z,5.65
2023-04-19T10:07:49.132Z,6.45
2023-04-19T10:10:20.712Z,4.10
2023-04-19T10:13:07.593Z,3.13
2023-04-19T10:18:06.815Z,3.35
2023-04-19T10:20:49.490Z,5.47
2023-04-19T10:23:16.480Z,4.03
2023-04-19T10:25:46.006Z,3.38
2023-04-19T10:28:12.464Z,4.57
2023-04-19T10:30:52.130Z,4.53
2023-04-19T10:33:27.945Z,4.53
2023-04-19T10:35:58.338Z,1.67
2023-04-19T10:38:44.433Z,4.80
2023-04-19T10:41:18.186Z,2.22
2023-04-19T10:44:08.170Z,2.50
2023-04-19T10:46:36.056Z,1.67
2023-04-19T10:49:03.706Z,2.95
2023-04-19T10:51:33.282Z,3.03
2023-04-19T10:54:00.610Z,1.92
2023-04-19T10:56:33.134Z,4.07
2023-04-19T10:59:10.334Z,3.95
2023-04-19T11:01:44.448Z,4.15
2023-04-19T11:04:22.498Z,3.30
2023-04-19T11:06:55.379Z,3.03
2023-04-19T11:09:24.275Z,4.15
2023-04-19T11:11:51.779Z,2.75
2023-04-19T11:14:19.188Z,5.72
2023-04-19T11:16:46.557Z,3.45
2023-04-19T11:19:16.636Z,3.45
2023-04-19T11:21:45.017Z,5.18
2023-04-19T11:24:11.861Z,2.10
2023-04-19T11:26:38.655Z,3.38
2023-04-19T11:29:06.373Z,5.82
2023-04-19T11:31:33.490Z,3.00
2023-04-19T11:34:00.830Z,2.80
2023-04-19T11:36:27.486Z,4.63
2023-04-19T11:38:54.010Z,3.22
2023-04-19T11:41:20.850Z,2.95
2023-04-19T11:43:48.401Z,4.53
2023-04-19T11:46:14.957Z,3.03
2023-04-19T11:49:01.819Z,2.42
2023-04-19T11:51:28.276Z,3.15
2023-04-19T11:53:54.698Z,3.33
2023-04-19T11:56:21.343Z,2.83
2023-04-19T11:58:51.278Z,2.20
2023-04-19T12:01:21.482Z,2.75
2023-04-19T12:03:52.889Z,4.93
2023-04-19T12:06:26.885Z,5.60
2023-04-19T12:08:54.073Z,4.95
2023-04-19T12:11:24.620Z,5.03
2023-04-19T12:14:09.670Z,2.95
2023-04-19T12:16:36.242Z,2.88
2023-04-19T12:19:17.421Z,4.57
2023-04-19T12:21:44.530Z,3.70
2023-04-19T12:24:12.384Z,2.85
2023-04-19T12:26:53.406Z,2.75
2023-04-19T12:29:21.724Z,3.83
2023-04-19T12:31:48.192Z,2.40
2023-04-19T12:34:14.691Z,5.00
2023-04-19T12:36:41.166Z,4.88
2023-04-19T12:39:08.428Z,4.35
2023-04-19T12:41:34.899Z,3.35
2023-04-19T12:44:01.474Z,4.15
2023-04-19T12:46:27.995Z,9.50
2023-04-19T12:48:54.492Z,4.45
2023-04-19T12:51:20.974Z,4.30
2023-04-19T12:53:47.945Z,6.38
2023-04-19T12:56:15.854Z,4.43
2023-04-19T12:58:42.337Z,4.55
2023-04-19T13:01:08.880Z,3.58
2023-04-19T13:03:36.464Z,5.35
2023-04-19T13:06:03.417Z,4.82
2023-04-19T13:08:44.253Z,8.02
2023-04-19T13:11:12.942Z,5.05
2023-04-19T13:13:39.364Z,3.95
2023-04-19T13:16:07.891Z,5.90
2023-04-19T13:18:34.842Z,4.03
2023-04-19T13:21:01.355Z,5.43
2023-04-19T13:23:27.795Z,3.67
2023-04-19T13:25:54.293Z,5.15
2023-04-19T13:28:20.820Z,4.28
2023-04-19T13:30:47.351Z,3.45
2023-04-19T13:33:13.865Z,5.18
2023-04-19T13:35:40.457Z,7.05
2023-04-19T13:38:07.135Z,3.40
2023-04-19T13:40:33.688Z,8.40
2023-04-19T13:43:00.215Z,7.75
2023-04-19T13:45:26.751Z,4.97
2023-04-19T13:47:53.998Z,5.95
2023-04-19T13:50:20.953Z,4.28
2023-04-19T13:52:47.415Z,5.45
2023-04-19T13:55:13.870Z,3.90
2023-04-19T13:57:40.440Z,7.10
2023-04-19T14:00:07.199Z,4.05
2023-04-19T14:02:34.088Z,7.22
2023-04-19T14:05:00.748Z,5.97
2023-04-19T14:07:27.193Z,3.47
2023-04-19T14:09:53.666Z,5.90
2023-04-19T14:12:20.585Z,5.47
2023-04-19T14:14:47.064Z,4.05
2023-04-19T14:17:13.532Z,6.05
2023-04-19T14:19:40.019Z,7.28
2023-04-19T14:22:06.540Z,4.93
2023-04-19T14:24:33.053Z,4.38
2023-04-19T14:27:10.306Z,5.55
2023-04-19T14:29:37.804Z,3.83
2023-04-19T14:32:17.053Z,6.25
2023-04-19T14:34:51.377Z,4.75
2023-04-19T14:37:18.373Z,5.32
2023-04-19T14:39:45.620Z,3.90
2023-04-19T14:42:12.184Z,5.93
2023-04-19T14:44:38.638Z,6.20
2023-04-19T14:47:05.157Z,8.18
2023-04-19T14:49:31.664Z,5.15
2023-04-19T14:51:58.260Z,5.70
2023-04-19T14:54:24.724Z,3.45
2023-04-19T14:56:51.288Z,4.57
2023-04-19T14:59:17.802Z,6.03
2023-04-19T15:01:44.521Z,6.00
2023-04-19T15:04:11.210Z,4.93
2023-04-19T15:06:38.127Z,3.92
2023-04-19T15:09:05.220Z,4.13
2023-04-19T15:11:31.756Z,5.22
2023-04-19T15:13:58.270Z,7.85
2023-04-19T15:16:24.793Z,5.20
2023-04-19T15:18:51.646Z,2.90
2023-04-19T15:21:24.210Z,6.50
2023-04-19T15:23:51.158Z,11.32
2023-04-19T15:26:17.887Z,3.97
2023-04-19T15:28:44.348Z,4.57
2023-04-19T15:31:10.932Z,4.72
2023-04-19T15:33:37.793Z,3.53
2023-04-19T15:36:04.682Z,6.28
2023-04-19T15:38:31.431Z,3.03
2023-04-19T15:40:58.269Z,5.47
2023-04-19T15:43:25.100Z,4.07
2023-04-19T15:45:51.887Z,5.40
2023-04-19T15:48:20.394Z,5.60
2023-04-19T15:50:46.949Z,8.65
2023-04-19T15:53:13.428Z,4.30
2023-04-19T15:55:41.350Z,4.03
2023-04-19T15:58:07.825Z,6.85
2023-04-19T16:00:34.273Z,2.88
2023-04-19T16:03:00.900Z,4.45
2023-04-19T16:05:27.473Z,4.05
2023-04-19T16:08:07.223Z,3.80
2023-04-19T16:10:33.940Z,7.07
2023-04-19T16:13:01.087Z,6.32
2023-04-19T16:15:28.013Z,3.83
2023-04-19T16:17:54.781Z,6.80
2023-04-19T16:20:21.284Z,3.15
2023-04-19T16:22:48.093Z,7.75
2023-04-19T16:25:15.040Z,3.55
2023-04-19T16:27:43.236Z,3.28
2023-04-19T16:30:10.939Z,5.55
2023-04-19T16:32:37.469Z,6.80
2023-04-19T16:35:08.081Z,5.22
2023-04-19T16:37:34.755Z,2.88
2023-04-19T16:40:08.672Z,3.67
2023-04-19T16:42:35.508Z,5.97
2023-04-19T16:45:02.227Z,6.07
2023-04-19T16:47:30.217Z,3.85
2023-04-19T16:49:57.333Z,6.22
2023-04-19T16:52:25.085Z,3.78
2023-04-19T16:54:51.688Z,3.22
2023-04-19T16:57:18.293Z,2.08
2023-04-19T16:59:45.123Z,4.38
2023-04-19T17:02:11.763Z,3.63
2023-04-19T17:04:38.650Z,3.03
2023-04-19T17:07:05.293Z,2.13
2023-04-19T17:09:31.799Z,4.18
2023-04-19T17:11:58.388Z,2.30
2023-04-19T17:14:24.823Z,3.17
2023-04-19T17:16:51.294Z,4.22
2023-04-19T17:19:18.118Z,4.78
2023-04-19T17:21:44.780Z,3.90
2023-04-19T17:24:11.280Z,3.70
2023-04-19T17:26:38.842Z,5.45
2023-04-19T17:29:05.668Z,4.28
2023-04-19T17:31:32.389Z,3.55
2023-04-19T17:33:58.879Z,2.28
2023-04-19T17:36:25.349Z,3.78
2023-04-19T17:38:51.782Z,2.22
2023-04-19T17:41:18.282Z,6.00
2023-04-19T17:43:45.528Z,2.33
2023-04-19T17:46:12.309Z,2.88
2023-04-19T17:48:38.768Z,2.97
2023-04-19T17:51:05.250Z,4.18
2023-04-19T17:53:31.698Z,3.63
2023-04-19T17:55:58.238Z,4.50
2023-04-19T17:58:24.658Z,7.10
2023-04-19T18:00:51.164Z,3.20
2023-04-19T18:03:17.649Z,4.22
2023-04-19T18:05:44.193Z,2.60
2023-04-19T18:08:10.658Z,4.65
2023-04-19T18:10:37.078Z,4.85
2023-04-19T18:13:03.541Z,5.20
2023-04-19T18:15:30.058Z,3.88
2023-04-19T18:17:56.498Z,5.72
2023-04-19T18:20:23.178Z,4.82
2023-04-19T18:22:50.449Z,3.90
2023-04-19T18:25:17.332Z,6.05
2023-04-19T18:27:44.410Z,2.80
2023-04-19T18:30:11.047Z,3.55
2023-04-19T18:32:37.774Z,4.43
2023-04-19T18:35:04.698Z,3.97
2023-04-19T18:37:31.171Z,6.60
2023-04-19T18:39:57.564Z,4.88
2023-04-19T18:42:24.045Z,3.47
2023-04-19T18:44:54.261Z,4.50
2023-04-19T18:47:21.582Z,5.65
2023-04-19T18:49:59.733Z,2.88
2023-04-19T18:52:31.459Z,4.15
2023-04-19T18:54:58.437Z,5.20
2023-04-19T18:57:27.513Z,4.00
2023-04-19T18:59:55.734Z,4.35
2023-04-19T19:02:22.270Z,4.53
2023-04-19T19:04:57.066Z,4.85
2023-04-19T19:07:35.627Z,4.72
2023-04-19T19:10:09.664Z,5.82
2023-04-19T19:12:43.261Z,4.10
2023-04-19T19:15:09.922Z,4.78
2023-04-19T19:17:36.437Z,4.20
2023-04-19T19:20:04.735Z,6.10
2023-04-19T19:22:31.229Z,3.15
2023-04-19T19:24:57.778Z,4.18
2023-04-19T19:27:24.731Z,4.93
2023-04-19T19:29:51.254Z,4.97
2023-04-19T19:32:19.137Z,4.50
2023-04-19T19:37:16.876Z,5.28
2023-04-19T19:39:46.746Z,5.25
2023-04-19T19:42:15.779Z,6.25
2023-04-19T19:44:42.421Z,4.32
2023-04-19T19:47:10.584Z,4.10
2023-04-19T19:52:07.153Z,3.40
2023-04-19T19:54:33.702Z,3.40
2023-04-19T19:57:49.737Z,4.07
2023-04-19T19:59:51.323Z,5.60
2023-04-19T20:02:22.332Z,5.15
2023-04-19T20:04:49.430Z,4.68
2023-04-19T20:09:45.512Z,5.65
2023-04-19T20:12:13.599Z,4.70
2023-04-19T20:14:40.720Z,5.95
2023-04-19T20:17:07.381Z,4.63
2023-04-19T20:19:34.031Z,5.47
2023-04-19T20:22:00.757Z,3.53
2023-04-19T20:24:27.522Z,4.68
2023-04-19T20:26:54.017Z,4.68
2023-04-19T20:29:20.561Z,3.33
2023-04-19T20:31:47.041Z,4.40
2023-04-19T20:34:13.551Z,4.80
2023-04-19T20:36:40.387Z,3.75
2023-04-19T20:39:09.600Z,3.40
2023-04-19T20:41:36.358Z,4.15
2023-04-19T20:44:03.001Z,4.28
2023-04-19T20:46:29.705Z,4.55
2023-04-19T20:48:56.422Z,4.40
2023-04-19T20:51:22.881Z,5.30
2023-04-19T20:53:49.371Z,6.30
2023-04-19T20:56:15.943Z,5.45
2023-04-19T20:58:42.428Z,4.97
2023-04-19T21:01:09.257Z,4.68
2023-04-19T21:03:35.979Z,5.25
2023-04-19T21:06:02.587Z,4.15
2023-04-19T21:08:29.019Z,6.25
2023-04-19T21:10:55.720Z,8.20
2023-04-19T21:13:22.145Z,5.10
2023-04-19T21:15:48.579Z,6.60
2023-04-19T21:18:15.544Z,6.10
2023-04-19T21:20:42.271Z,7.13
2023-04-19T21:23:08.702Z,7.32
2023-04-19T21:25:35.144Z,8.65
2023-04-19T21:28:01.603Z,6.72
2023-04-19T21:30:28.420Z,5.38
2023-04-19T21:32:54.976Z,6.88
2023-04-19T21:35:21.478Z,6.43
2023-04-19T21:37:47.991Z,5.43
2023-04-19T21:40:14.456Z,4.63
2023-04-19T21:42:40.971Z,6.50
2023-04-19T21:45:07.682Z,8.13
2023-04-19T21:47:34.234Z,6.95
2023-04-19T21:50:00.801Z,8.73
2023-04-19T21:52:27.225Z,6.93
2023-04-19T21:54:53.689Z,5.68
2023-04-19T21:57:24.357Z,4.63
2023-04-19T21:59:51.111Z,9.38
2023-04-19T22:02:17.623Z,4.95
2023-04-19T22:04:44.734Z,4.22
2023-04-19T22:07:12.515Z,7.60
2023-04-19T22:09:39.286Z,4.13
2023-04-19T22:12:06.071Z,5.70
2023-04-19T22:14:32.557Z,6.95
2023-04-19T22:17:02.241Z,4.75
2023-04-19T22:19:29.267Z,4.63
2023-04-19T22:21:55.872Z,6.78
2023-04-19T22:24:22.401Z,7.97
2023-04-19T22:26:50.096Z,6.13
2023-04-19T22:29:17.262Z,6.10
2023-04-19T22:31:43.964Z,5.50
2023-04-19T22:34:10.619Z,6.13
2023-04-19T22:36:37.044Z,7.20
2023-04-19T22:39:04.644Z,6.50
2023-04-19T22:41:32.244Z,5.82
2023-04-19T22:43:59.362Z,4.25
2023-04-19T22:46:26.222Z,6.32
2023-04-19T22:48:52.793Z,5.53
2023-04-19T22:51:20.066Z,7.03
2023-04-19T22:53:46.555Z,4.55
2023-04-19T22:56:13.073Z,5.53
2023-04-19T22:58:39.607Z,4.60
2023-04-19T23:01:06.517Z,5.68
2023-04-19T23:03:33.129Z,4.78
2023-04-19T23:06:00.923Z,5.97
2023-04-19T23:08:28.774Z,5.78
2023-04-19T23:10:55.297Z,5.70
2023-04-19T23:13:21.763Z,5.22
2023-04-19T23:15:48.342Z,6.35
2023-04-19T23:18:14.770Z,6.30
2023-04-19T23:20:41.553Z,3.60
2023-04-19T23:23:08.074Z,5.00
2023-04-19T23:25:34.759Z,4.32
2023-04-19T23:28:01.230Z,6.47
2023-04-19T23:30:27.756Z,4.78
2023-04-19T23:32:54.205Z,4.90
2023-04-19T23:35:20.722Z,7.53
2023-04-19T23:37:47.255Z,7.88
2023-04-19T23:40:14.076Z,4.22
2023-04-19T23:42:40.530Z,4.63
2023-04-19T23:45:07.242Z,6.20
2023-04-19T23:47:34.236Z,4.28
2023-04-19T23:50:00.983Z,5.55
2023-04-19T23:52:27.503Z,3.83
2023-04-19T23:54:53.909Z,5.47
2023-04-19T23:57:20.393Z,6.07
2023-04-19T23:59:46.866Z,5.28
